sensor_id;sensor_type;location;lat;lon;timestamp;P1;durP1;ratioP1;P2;durP2;ratioP2
43345;SDS011;28937;51.160;4.146;2023-08-01T00:01:27;9.35;;;7.40;;
43345;SDS011;28937;51.160;4.146;2023-08-01T00:03:53;10.57;;;7.85;;
43345;SDS011;28937;51.160;4.146;2023-08-01T00:06:19;11.93;;;8.73;;
43345;SDS011;28937;51.160;4.146;2023-08-01T00:08:45;10.88;;;8.93;;
43345;SDS011;28937;51.160;4.146;2023-08-01T00:11:11;16.35;;;8.95;;
43345;SDS011;28937;51.160;4.146;2023-08-01T00:13:39;13.15;;;9.50;;
43345;SDS011;28937;51.160;4.146;2023-08-01T00:16:05;9.70;;;8.70;;
43345;SDS011;28937;51.160;4.146;2023-08-01T00:18:31;11.10;;;9.80;;
43345;SDS011;28937;51.160;4.146;2023-08-01T00:20:56;12.45;;;10.00;;
43345;SDS011;28937;51.160;4.146;2023-08-01T00:23:23;14.25;;;10.15;;
43345;SDS011;28937;51.160;4.146;2023-08-01T00:25:49;11.98;;;10.27;;
43345;SDS011;28937;51.160;4.146;2023-08-01T00:28:21;10.80;;;9.73;;
43345;SDS011;28937;51.160;4.146;2023-08-01T00:30:47;14.18;;;11.68;;
43345;SDS011;28937;51.160;4.146;2023-08-01T00:33:13;13.07;;;10.93;;
43345;SDS011;28937;51.160;4.146;2023-08-01T00:35:39;15.02;;;10.13;;
43345;SDS011;28937;51.160;4.146;2023-08-01T00:38:05;15.65;;;11.43;;
43345;SDS011;28937;51.160;4.146;2023-08-01T00:40:31;14.48;;;10.23;;
43345;SDS011;28937;51.160;4.146;2023-08-01T00:42:57;15.50;;;10.82;;
43345;SDS011;28937;51.160;4.146;2023-08-01T00:45:24;12.52;;;9.43;;
43345;SDS011;28937;51.160;4.146;2023-08-01T00:47:51;13.40;;;10.95;;
43345;SDS011;28937;51.160;4.146;2023-08-01T00:50:17;17.08;;;11.50;;
43345;SDS011;28937;51.160;4.146;2023-08-01T00:52:45;13.52;;;9.80;;
43345;SDS011;28937;51.160;4.146;2023-08-01T00:55:11;11.43;;;9.60;;
43345;SDS011;28937;51.160;4.146;2023-08-01T00:57:37;13.52;;;11.32;;
43345;SDS011;28937;51.160;4.146;2023-08-01T01:00:03;15.20;;;10.63;;
43345;SDS011;28937;51.160;4.146;2023-08-01T01:02:29;15.18;;;10.77;;
43345;SDS011;28937;51.160;4.146;2023-08-01T01:04:55;14.02;;;11.18;;
43345;SDS011;28937;51.160;4.146;2023-08-01T01:07:21;14.30;;;11.95;;
43345;SDS011;28937;51.160;4.146;2023-08-01T01:09:47;17.02;;;11.20;;
43345;SDS011;28937;51.160;4.146;2023-08-01T01:12:13;13.73;;;11.23;;
43345;SDS011;28937;51.160;4.146;2023-08-01T01:14:38;14.43;;;10.45;;
43345;SDS011;28937;51.160;4.146;2023-08-01T01:17:04;17.50;;;11.75;;
43345;SDS011;28937;51.160;4.146;2023-08-01T01:19:30;17.02;;;12.18;;
43345;SDS011;28937;51.160;4.146;2023-08-01T01:21:56;18.80;;;12.13;;
43345;SDS011;28937;51.160;4.146;2023-08-01T01:24:22;15.23;;;12.00;;
43345;SDS011;28937;51.160;4.146;2023-08-01T01:26:48;17.60;;;13.25;;
43345;SDS011;28937;51.160;4.146;2023-08-01T01:29:15;13.27;;;11.80;;
43345;SDS011;28937;51.160;4.146;2023-08-01T01:31:40;17.17;;;12.52;;
43345;SDS011;28937;51.160;4.146;2023-08-01T01:34:07;15.57;;;11.15;;
43345;SDS011;28937;51.160;4.146;2023-08-01T01:36:33;19.55;;;13.00;;
43345;SDS011;28937;51.160;4.146;2023-08-01T01:38:59;20.05;;;12.55;;
43345;SDS011;28937;51.160;4.146;2023-08-01T01:41:25;14.80;;;12.15;;
43345;SDS011;28937;51.160;4.146;2023-08-01T01:43:50;18.08;;;12.32;;
43345;SDS011;28937;51.160;4.146;2023-08-01T01:46:16;13.93;;;11.90;;
43345;SDS011;28937;51.160;4.146;2023-08-01T01:48:42;16.60;;;12.77;;
43345;SDS011;28937;51.160;4.146;2023-08-01T01:51:07;18.60;;;13.15;;
43345;SDS011;28937;51.160;4.146;2023-08-01T01:53:33;19.42;;;12.77;;
43345;SDS011;28937;51.160;4.146;2023-08-01T01:55:59;15.02;;;11.88;;
43345;SDS011;28937;51.160;4.146;2023-08-01T01:58:24;16.90;;;12.55;;
43345;SDS011;28937;51.160;4.146;2023-08-01T02:00:50;16.58;;;13.15;;
43345;SDS011;28937;51.160;4.146;2023-08-01T02:03:15;16.33;;;12.25;;
43345;SDS011;28937;51.160;4.146;2023-08-01T02:05:41;19.30;;;12.20;;
43345;SDS011;28937;51.160;4.146;2023-08-01T02:08:06;15.98;;;12.85;;
43345;SDS011;28937;51.160;4.146;2023-08-01T02:10:32;19.58;;;13.63;;
43345;SDS011;28937;51.160;4.146;2023-08-01T02:12:58;18.15;;;12.55;;
43345;SDS011;28937;51.160;4.146;2023-08-01T02:15:23;16.13;;;11.65;;
43345;SDS011;28937;51.160;4.146;2023-08-01T02:17:49;15.93;;;12.32;;
43345;SDS011;28937;51.160;4.146;2023-08-01T02:20:15;19.52;;;13.20;;
43345;SDS011;28937;51.160;4.146;2023-08-01T02:22:40;18.85;;;14.02;;
43345;SDS011;28937;51.160;4.146;2023-08-01T02:25:06;19.48;;;13.65;;
43345;SDS011;28937;51.160;4.146;2023-08-01T02:27:32;16.80;;;12.40;;
43345;SDS011;28937;51.160;4.146;2023-08-01T02:29:57;18.75;;;12.85;;
43345;SDS011;28937;51.160;4.146;2023-08-01T02:32:23;17.42;;;13.20;;
43345;SDS011;28937;51.160;4.146;2023-08-01T02:34:49;22.45;;;13.50;;
43345;SDS011;28937;51.160;4.146;2023-08-01T02:37:14;19.58;;;13.15;;
43345;SDS011;28937;51.160;4.146;2023-08-01T02:39:40;23.90;;;13.25;;
43345;SDS011;28937;51.160;4.146;2023-08-01T02:42:06;18.67;;;12.70;;
43345;SDS011;28937;51.160;4.146;2023-08-01T02:44:31;16.55;;;12.90;;
43345;SDS011;28937;51.160;4.146;2023-08-01T02:46:57;16.63;;;12.60;;
43345;SDS011;28937;51.160;4.146;2023-08-01T02:49:22;21.63;;;13.90;;
43345;SDS011;28937;51.160;4.146;2023-08-01T02:51:48;19.98;;;12.32;;
43345;SDS011;28937;51.160;4.146;2023-08-01T02:54:14;16.48;;;12.27;;
43345;SDS011;28937;51.160;4.146;2023-08-01T02:56:39;15.52;;;13.43;;
43345;SDS011;28937;51.160;4.146;2023-08-01T02:59:06;20.33;;;13.57;;
43345;SDS011;28937;51.160;4.146;2023-08-01T03:01:33;19.58;;;13.10;;
43345;SDS011;28937;51.160;4.146;2023-08-01T03:04:00;16.08;;;11.88;;
43345;SDS011;28937;51.160;4.146;2023-08-01T03:06:33;17.48;;;12.13;;
43345;SDS011;28937;51.160;4.146;2023-08-01T03:08:59;18.98;;;13.52;;
43345;SDS011;28937;51.160;4.146;2023-08-01T03:11:24;17.25;;;12.85;;
43345;SDS011;28937;51.160;4.146;2023-08-01T03:13:51;20.73;;;12.73;;
43345;SDS011;28937;51.160;4.146;2023-08-01T03:16:17;24.85;;;13.27;;
43345;SDS011;28937;51.160;4.146;2023-08-01T03:18:42;19.00;;;13.30;;
43345;SDS011;28937;51.160;4.146;2023-08-01T03:21:08;17.88;;;12.80;;
43345;SDS011;28937;51.160;4.146;2023-08-01T03:23:34;20.77;;;13.73;;
43345;SDS011;28937;51.160;4.146;2023-08-01T03:26:00;17.60;;;13.07;;
43345;SDS011;28937;51.160;4.146;2023-08-01T03:28:26;20.15;;;13.30;;
43345;SDS011;28937;51.160;4.146;2023-08-01T03:30:52;21.35;;;13.95;;
43345;SDS011;28937;51.160;4.146;2023-08-01T03:33:19;23.17;;;12.98;;
43345;SDS011;28937;51.160;4.146;2023-08-01T03:35:45;20.25;;;14.48;;
43345;SDS011;28937;51.160;4.146;2023-08-01T03:38:11;18.33;;;14.95;;
43345;SDS011;28937;51.160;4.146;2023-08-01T03:40:36;19.60;;;14.63;;
43345;SDS011;28937;51.160;4.146;2023-08-01T03:43:02;19.85;;;14.90;;
43345;SDS011;28937;51.160;4.146;2023-08-01T03:45:27;16.70;;;14.10;;
43345;SDS011;28937;51.160;4.146;2023-08-01T03:47:53;19.83;;;13.13;;
43345;SDS011;28937;51.160;4.146;2023-08-01T03:50:19;23.45;;;14.98;;
43345;SDS011;28937;51.160;4.146;2023-08-01T03:52:44;24.98;;;13.55;;
43345;SDS011;28937;51.160;4.146;2023-08-01T03:55:10;17.23;;;13.07;;
43345;SDS011;28937;51.160;4.146;2023-08-01T03:57:36;21.42;;;14.18;;
43345;SDS011;28937;51.160;4.146;2023-08-01T04:00:05;19.42;;;14.15;;
43345;SDS011;28937;51.160;4.146;2023-08-01T04:02:31;20.40;;;13.63;;
43345;SDS011;28937;51.160;4.146;2023-08-01T04:04:57;19.63;;;12.70;;
43345;SDS011;28937;51.160;4.146;2023-08-01T04:07:22;19.88;;;13.05;;
43345;SDS011;28937;51.160;4.146;2023-08-01T04:09:48;16.13;;;11.25;;
43345;SDS011;28937;51.160;4.146;2023-08-01T04:12:13;16.92;;;12.95;;
43345;SDS011;28937;51.160;4.146;2023-08-01T04:14:39;14.50;;;12.38;;
43345;SDS011;28937;51.160;4.146;2023-08-01T04:17:05;14.75;;;11.77;;
43345;SDS011;28937;51.160;4.146;2023-08-01T04:19:30;17.33;;;11.25;;
43345;SDS011;28937;51.160;4.146;2023-08-01T04:21:56;18.38;;;10.20;;
43345;SDS011;28937;51.160;4.146;2023-08-01T04:24:22;19.33;;;10.68;;
43345;SDS011;28937;51.160;4.146;2023-08-01T04:26:50;14.95;;;9.57;;
43345;SDS011;28937;51.160;4.146;2023-08-01T04:29:16;14.30;;;10.18;;
43345;SDS011;28937;51.160;4.146;2023-08-01T04:31:43;13.60;;;9.43;;
43345;SDS011;28937;51.160;4.146;2023-08-01T04:34:08;13.30;;;9.63;;
43345;SDS011;28937;51.160;4.146;2023-08-01T04:36:34;16.13;;;9.38;;
43345;SDS011;28937;51.160;4.146;2023-08-01T04:38:59;13.00;;;8.93;;
43345;SDS011;28937;51.160;4.146;2023-08-01T04:41:25;12.73;;;9.20;;
43345;SDS011;28937;51.160;4.146;2023-08-01T04:43:51;13.95;;;8.90;;
43345;SDS011;28937;51.160;4.146;2023-08-01T04:46:17;15.48;;;8.88;;
43345;SDS011;28937;51.160;4.146;2023-08-01T04:48:42;12.30;;;8.88;;
43345;SDS011;28937;51.160;4.146;2023-08-01T04:51:08;11.32;;;8.68;;
43345;SDS011;28937;51.160;4.146;2023-08-01T04:53:33;13.25;;;8.38;;
43345;SDS011;28937;51.160;4.146;2023-08-01T04:55:59;10.93;;;8.25;;
43345;SDS011;28937;51.160;4.146;2023-08-01T04:58:25;10.82;;;7.57;;
43345;SDS011;28937;51.160;4.146;2023-08-01T05:00:50;12.73;;;7.38;;
43345;SDS011;28937;51.160;4.146;2023-08-01T05:03:16;11.68;;;8.00;;
43345;SDS011;28937;51.160;4.146;2023-08-01T05:05:41;13.38;;;8.35;;
43345;SDS011;28937;51.160;4.146;2023-08-01T05:08:07;11.35;;;7.82;;
43345;SDS011;28937;51.160;4.146;2023-08-01T05:10:33;12.98;;;7.40;;
43345;SDS011;28937;51.160;4.146;2023-08-01T05:12:58;14.07;;;7.45;;
43345;SDS011;28937;51.160;4.146;2023-08-01T05:15:24;15.25;;;7.47;;
43345;SDS011;28937;51.160;4.146;2023-08-01T05:17:49;14.23;;;7.07;;
43345;SDS011;28937;51.160;4.146;2023-08-01T05:20:15;9.73;;;7.32;;
43345;SDS011;28937;51.160;4.146;2023-08-01T05:22:41;9.60;;;7.43;;
43345;SDS011;28937;51.160;4.146;2023-08-01T05:25:06;11.85;;;6.72;;
43345;SDS011;28937;51.160;4.146;2023-08-01T05:27:32;12.02;;;7.18;;
43345;SDS011;28937;51.160;4.146;2023-08-01T05:29:59;15.10;;;7.50;;
43345;SDS011;28937;51.160;4.146;2023-08-01T05:32:24;10.73;;;6.70;;
43345;SDS011;28937;51.160;4.146;2023-08-01T05:34:50;8.85;;;6.60;;
43345;SDS011;28937;51.160;4.146;2023-08-01T05:37:16;9.98;;;7.10;;
43345;SDS011;28937;51.160;4.146;2023-08-01T05:39:41;11.07;;;6.40;;
43345;SDS011;28937;51.160;4.146;2023-08-01T05:42:07;12.98;;;6.47;;
43345;SDS011;28937;51.160;4.146;2023-08-01T05:44:35;13.63;;;7.05;;
43345;SDS011;28937;51.160;4.146;2023-08-01T05:47:01;10.35;;;6.38;;
43345;SDS011;28937;51.160;4.146;2023-08-01T05:49:26;11.23;;;5.90;;
43345;SDS011;28937;51.160;4.146;2023-08-01T05:51:54;12.38;;;6.47;;
43345;SDS011;28937;51.160;4.146;2023-08-01T05:54:20;10.70;;;6.00;;
43345;SDS011;28937;51.160;4.146;2023-08-01T05:56:45;10.73;;;6.57;;
43345;SDS011;28937;51.160;4.146;2023-08-01T05:59:11;11.43;;;5.88;;
43345;SDS011;28937;51.160;4.146;2023-08-01T06:01:36;10.70;;;6.03;;
43345;SDS011;28937;51.160;4.146;2023-08-01T06:04:02;12.50;;;6.22;;
43345;SDS011;28937;51.160;4.146;2023-08-01T06:06:28;12.45;;;6.20;;
43345;SDS011;28937;51.160;4.146;2023-08-01T06:08:53;11.02;;;6.13;;
43345;SDS011;28937;51.160;4.146;2023-08-01T06:11:19;15.32;;;6.95;;
43345;SDS011;28937;51.160;4.146;2023-08-01T06:13:45;10.73;;;6.18;;
43345;SDS011;28937;51.160;4.146;2023-08-01T06:16:10;11.70;;;6.05;;
43345;SDS011;28937;51.160;4.146;2023-08-01T06:18:36;11.52;;;6.35;;
43345;SDS011;28937;51.160;4.146;2023-08-01T06:21:02;11.98;;;6.13;;
43345;SDS011;28937;51.160;4.146;2023-08-01T06:23:27;14.65;;;6.55;;
43345;SDS011;28937;51.160;4.146;2023-08-01T06:25:53;12.88;;;6.10;;
43345;SDS011;28937;51.160;4.146;2023-08-01T06:28:19;15.63;;;7.07;;
43345;SDS011;28937;51.160;4.146;2023-08-01T06:30:45;12.95;;;6.18;;
43345;SDS011;28937;51.160;4.146;2023-08-01T06:33:10;12.10;;;6.65;;
43345;SDS011;28937;51.160;4.146;2023-08-01T06:35:36;13.90;;;6.65;;
43345;SDS011;28937;51.160;4.146;2023-08-01T06:38:01;12.93;;;6.15;;
43345;SDS011;28937;51.160;4.146;2023-08-01T06:40:27;13.27;;;6.88;;
43345;SDS011;28937;51.160;4.146;2023-08-01T06:42:52;13.38;;;6.47;;
43345;SDS011;28937;51.160;4.146;2023-08-01T06:45:18;8.57;;;5.35;;
43345;SDS011;28937;51.160;4.146;2023-08-01T06:47:44;12.52;;;5.60;;
43345;SDS011;28937;51.160;4.146;2023-08-01T06:50:09;13.38;;;6.03;;
43345;SDS011;28937;51.160;4.146;2023-08-01T06:52:35;10.43;;;6.00;;
43345;SDS011;28937;51.160;4.146;2023-08-01T06:55:00;13.32;;;6.60;;
43345;SDS011;28937;51.160;4.146;2023-08-01T06:57:26;11.52;;;6.55;;
43345;SDS011;28937;51.160;4.146;2023-08-01T06:59:52;16.85;;;6.35;;
43345;SDS011;28937;51.160;4.146;2023-08-01T07:02:18;14.18;;;6.40;;
43345;SDS011;28937;51.160;4.146;2023-08-01T07:04:43;16.70;;;6.50;;
43345;SDS011;28937;51.160;4.146;2023-08-01T07:07:09;11.20;;;5.53;;
43345;SDS011;28937;51.160;4.146;2023-08-01T07:09:35;14.80;;;6.85;;
43345;SDS011;28937;51.160;4.146;2023-08-01T07:12:00;16.98;;;6.40;;
43345;SDS011;28937;51.160;4.146;2023-08-01T07:14:26;11.32;;;6.30;;
43345;SDS011;28937;51.160;4.146;2023-08-01T07:16:52;14.50;;;5.68;;
43345;SDS011;28937;51.160;4.146;2023-08-01T07:19:18;14.15;;;5.30;;
43345;SDS011;28937;51.160;4.146;2023-08-01T07:21:43;9.80;;;5.28;;
43345;SDS011;28937;51.160;4.146;2023-08-01T07:24:13;14.73;;;5.28;;
43345;SDS011;28937;51.160;4.146;2023-08-01T07:26:40;12.25;;;4.95;;
43345;SDS011;28937;51.160;4.146;2023-08-01T07:29:06;10.75;;;5.20;;
43345;SDS011;28937;51.160;4.146;2023-08-01T07:31:34;8.10;;;4.82;;
43345;SDS011;28937;51.160;4.146;2023-08-01T07:33:59;9.93;;;4.63;;
43345;SDS011;28937;51.160;4.146;2023-08-01T07:36:25;14.25;;;5.20;;
43345;SDS011;28937;51.160;4.146;2023-08-01T07:38:51;14.00;;;4.72;;
43345;SDS011;28937;51.160;4.146;2023-08-01T07:41:16;17.10;;;4.60;;
43345;SDS011;28937;51.160;4.146;2023-08-01T07:43:42;10.05;;;4.45;;
43345;SDS011;28937;51.160;4.146;2023-08-01T07:46:07;12.63;;;4.55;;
43345;SDS011;28937;51.160;4.146;2023-08-01T07:48:34;11.40;;;4.82;;
43345;SDS011;28937;51.160;4.146;2023-08-01T07:51:00;12.23;;;4.97;;
43345;SDS011;28937;51.160;4.146;2023-08-01T07:53:26;13.60;;;5.25;;
43345;SDS011;28937;51.160;4.146;2023-08-01T07:55:52;12.98;;;4.80;;
43345;SDS011;28937;51.160;4.146;2023-08-01T07:58:18;10.57;;;4.78;;
43345;SDS011;28937;51.160;4.146;2023-08-01T08:00:44;11.90;;;4.28;;
43345;SDS011;28937;51.160;4.146;2023-08-01T08:03:09;9.82;;;4.18;;
43345;SDS011;28937;51.160;4.146;2023-08-01T08:05:35;9.73;;;4.53;;
43345;SDS011;28937;51.160;4.146;2023-08-01T08:08:03;13.05;;;3.90;;
43345;SDS011;28937;51.160;4.146;2023-08-01T08:10:30;12.25;;;3.53;;
43345;SDS011;28937;51.160;4.146;2023-08-01T08:12:55;11.88;;;4.40;;
43345;SDS011;28937;51.160;4.146;2023-08-01T08:15:21;11.05;;;4.53;;
43345;SDS011;28937;51.160;4.146;2023-08-01T08:17:48;10.90;;;4.07;;
43345;SDS011;28937;51.160;4.146;2023-08-01T08:20:14;7.53;;;3.00;;
43345;SDS011;28937;51.160;4.146;2023-08-01T08:22:39;8.20;;;2.78;;
43345;SDS011;28937;51.160;4.146;2023-08-01T08:25:05;9.15;;;3.75;;
43345;SDS011;28937;51.160;4.146;2023-08-01T08:27:31;12.15;;;4.72;;
43345;SDS011;28937;51.160;4.146;2023-08-01T08:29:56;10.73;;;4.07;;
43345;SDS011;28937;51.160;4.146;2023-08-01T08:32:22;9.52;;;3.40;;
43345;SDS011;28937;51.160;4.146;2023-08-01T08:34:48;10.15;;;4.00;;
43345;SDS011;28937;51.160;4.146;2023-08-01T08:37:13;13.23;;;3.75;;
43345;SDS011;28937;51.160;4.146;2023-08-01T08:39:39;11.05;;;3.08;;
43345;SDS011;28937;51.160;4.146;2023-08-01T08:42:04;9.75;;;4.32;;
43345;SDS011;28937;51.160;4.146;2023-08-01T08:44:30;7.22;;;3.58;;
43345;SDS011;28937;51.160;4.146;2023-08-01T08:47:02;9.70;;;4.03;;
43345;SDS011;28937;51.160;4.146;2023-08-01T08:49:29;7.90;;;2.92;;
43345;SDS011;28937;51.160;4.146;2023-08-01T08:51:56;7.63;;;2.70;;
43345;SDS011;28937;51.160;4.146;2023-08-01T08:54:22;9.35;;;2.47;;
43345;SDS011;28937;51.160;4.146;2023-08-01T08:56:48;7.75;;;2.88;;
43345;SDS011;28937;51.160;4.146;2023-08-01T08:59:14;8.93;;;2.67;;
43345;SDS011;28937;51.160;4.146;2023-08-01T09:01:40;10.73;;;3.30;;
43345;SDS011;28937;51.160;4.146;2023-08-01T09:04:06;8.35;;;3.50;;
43345;SDS011;28937;51.160;4.146;2023-08-01T09:06:32;10.88;;;3.30;;
43345;SDS011;28937;51.160;4.146;2023-08-01T09:09:03;14.00;;;3.47;;
43345;SDS011;28937;51.160;4.146;2023-08-01T09:11:41;7.43;;;3.70;;
43345;SDS011;28937;51.160;4.146;2023-08-01T09:14:09;8.30;;;4.13;;
43345;SDS011;28937;51.160;4.146;2023-08-01T09:16:35;12.35;;;4.00;;
43345;SDS011;28937;51.160;4.146;2023-08-01T09:19:01;9.07;;;4.07;;
43345;SDS011;28937;51.160;4.146;2023-08-01T09:21:31;10.00;;;3.30;;
43345;SDS011;28937;51.160;4.146;2023-08-01T09:26:44;9.48;;;3.65;;
43345;SDS011;28937;51.160;4.146;2023-08-01T09:29:11;8.40;;;2.00;;
43345;SDS011;28937;51.160;4.146;2023-08-01T09:31:38;9.70;;;3.58;;
43345;SDS011;28937;51.160;4.146;2023-08-01T09:34:05;11.02;;;3.33;;
43345;SDS011;28937;51.160;4.146;2023-08-01T09:36:42;8.43;;;3.08;;
43345;SDS011;28937;51.160;4.146;2023-08-01T09:39:08;9.60;;;3.15;;
43345;SDS011;28937;51.160;4.146;2023-08-01T09:41:34;13.18;;;3.65;;
43345;SDS011;28937;51.160;4.146;2023-08-01T09:43:59;7.40;;;3.38;;
43345;SDS011;28937;51.160;4.146;2023-08-01T09:46:25;9.35;;;2.95;;
43345;SDS011;28937;51.160;4.146;2023-08-01T09:48:51;10.85;;;2.72;;
43345;SDS011;28937;51.160;4.146;2023-08-01T09:51:17;6.97;;;2.63;;
43345;SDS011;28937;51.160;4.146;2023-08-01T09:56:18;9.07;;;2.70;;
43345;SDS011;28937;51.160;4.146;2023-08-01T09:58:46;9.55;;;3.22;;
43345;SDS011;28937;51.160;4.146;2023-08-01T10:01:15;4.95;;;2.13;;
43345;SDS011;28937;51.160;4.146;2023-08-01T10:03:45;5.65;;;2.20;;
43345;SDS011;28937;51.160;4.146;2023-08-01T10:06:23;5.93;;;2.25;;
43345;SDS011;28937;51.160;4.146;2023-08-01T10:08:50;8.60;;;2.60;;
43345;SDS011;28937;51.160;4.146;2023-08-01T10:11:18;8.27;;;2.75;;
43345;SDS011;28937;51.160;4.146;2023-08-01T10:13:45;6.47;;;2.42;;
43345;SDS011;28937;51.160;4.146;2023-08-01T10:16:11;7.90;;;1.88;;
43345;SDS011;28937;51.160;4.146;2023-08-01T10:18:38;13.05;;;2.38;;
43345;SDS011;28937;51.160;4.146;2023-08-01T10:21:08;6.72;;;2.20;;
43345;SDS011;28937;51.160;4.146;2023-08-01T10:23:39;8.07;;;2.40;;
43345;SDS011;28937;51.160;4.146;2023-08-01T10:26:06;8.00;;;2.58;;
43345;SDS011;28937;51.160;4.146;2023-08-01T10:28:34;6.47;;;2.25;;
43345;SDS011;28937;51.160;4.146;2023-08-01T10:31:10;5.22;;;2.20;;
43345;SDS011;28937;51.160;4.146;2023-08-01T10:33:40;10.23;;;2.78;;
43345;SDS011;28937;51.160;4.146;2023-08-01T10:36:20;7.07;;;2.20;;
43345;SDS011;28937;51.160;4.146;2023-08-01T10:38:48;8.60;;;2.55;;
43345;SDS011;28937;51.160;4.146;2023-08-01T10:41:26;9.20;;;2.30;;
43345;SDS011;28937;51.160;4.146;2023-08-01T10:44:11;6.13;;;2.10;;
43345;SDS011;28937;51.160;4.146;2023-08-01T10:51:59;8.80;;;2.22;;
43345;SDS011;28937;51.160;4.146;2023-08-01T10:54:26;7.40;;;2.15;;
43345;SDS011;28937;51.160;4.146;2023-08-01T10:56:52;6.47;;;2.15;;
43345;SDS011;28937;51.160;4.146;2023-08-01T10:59:19;7.53;;;2.17;;
43345;SDS011;28937;51.160;4.146;2023-08-01T11:04:21;9.35;;;1.70;;
43345;SDS011;28937;51.160;4.146;2023-08-01T11:06:49;6.22;;;1.50;;
43345;SDS011;28937;51.160;4.146;2023-08-01T11:09:18;3.55;;;1.25;;
43345;SDS011;28937;51.160;4.146;2023-08-01T11:11:46;9.32;;;1.80;;
43345;SDS011;28937;51.160;4.146;2023-08-01T11:14:14;6.68;;;1.60;;
43345;SDS011;28937;51.160;4.146;2023-08-01T11:16:40;5.65;;;1.38;;
43345;SDS011;28937;51.160;4.146;2023-08-01T11:19:17;4.95;;;1.45;;
43345;SDS011;28937;51.160;4.146;2023-08-01T11:21:44;9.60;;;2.03;;
43345;SDS011;28937;51.160;4.146;2023-08-01T11:24:09;7.45;;;1.90;;
43345;SDS011;28937;51.160;4.146;2023-08-01T11:26:35;7.43;;;1.63;;
43345;SDS011;28937;51.160;4.146;2023-08-01T11:29:04;5.68;;;1.80;;
43345;SDS011;28937;51.160;4.146;2023-08-01T11:31:30;5.82;;;1.80;;
43345;SDS011;28937;51.160;4.146;2023-08-01T11:33:56;8.95;;;2.20;;
43345;SDS011;28937;51.160;4.146;2023-08-01T11:36:24;4.50;;;1.35;;
43345;SDS011;28937;51.160;4.146;2023-08-01T11:38:52;4.20;;;1.38;;
43345;SDS011;28937;51.160;4.146;2023-08-01T11:41:18;5.90;;;1.60;;
43345;SDS011;28937;51.160;4.146;2023-08-01T11:43:44;4.15;;;1.30;;
43345;SDS011;28937;51.160;4.146;2023-08-01T11:46:09;5.95;;;1.42;;
43345;SDS011;28937;51.160;4.146;2023-08-01T11:48:35;3.78;;;1.45;;
43345;SDS011;28937;51.160;4.146;2023-08-01T11:51:01;4.65;;;1.67;;
43345;SDS011;28937;51.160;4.146;2023-08-01T11:53:28;4.95;;;1.50;;
43345;SDS011;28937;51.160;4.146;2023-08-01T11:55:54;6.55;;;1.70;;
43345;SDS011;28937;51.160;4.146;2023-08-01T11:58:39;8.55;;;1.90;;
43345;SDS011;28937;51.160;4.146;2023-08-01T12:03:42;8.13;;;1.98;;
43345;SDS011;28937;51.160;4.146;2023-08-01T12:06:09;3.67;;;1.48;;
43345;SDS011;28937;51.160;4.146;2023-08-01T12:08:37;8.95;;;1.80;;
43345;SDS011;28937;51.160;4.146;2023-08-01T12:11:03;7.80;;;1.55;;
43345;SDS011;28937;51.160;4.146;2023-08-01T12:13:29;6.85;;;1.90;;
43345;SDS011;28937;51.160;4.146;2023-08-01T12:15:56;5.85;;;1.95;;
43345;SDS011;28937;51.160;4.146;2023-08-01T12:18:23;7.93;;;1.65;;
43345;SDS011;28937;51.160;4.146;2023-08-01T12:20:54;8.18;;;1.58;;
43345;SDS011;28937;51.160;4.146;2023-08-01T12:23:20;5.28;;;1.10;;
43345;SDS011;28937;51.160;4.146;2023-08-01T12:25:46;6.50;;;1.10;;
43345;SDS011;28937;51.160;4.146;2023-08-01T12:28:15;5.70;;;1.40;;
43345;SDS011;28937;51.160;4.146;2023-08-01T12:30:41;3.70;;;1.17;;
43345;SDS011;28937;51.160;4.146;2023-08-01T12:33:08;4.40;;;1.27;;
43345;SDS011;28937;51.160;4.146;2023-08-01T12:35:34;4.57;;;1.45;;
43345;SDS011;28937;51.160;4.146;2023-08-01T12:37:59;4.30;;;1.25;;
43345;SDS011;28937;51.160;4.146;2023-08-01T12:40:25;5.63;;;1.42;;
43345;SDS011;28937;51.160;4.146;2023-08-01T12:42:51;2.95;;;0.88;;
43345;SDS011;28937;51.160;4.146;2023-08-01T12:45:16;6.07;;;1.60;;
43345;SDS011;28937;51.160;4.146;2023-08-01T12:47:43;3.35;;;1.33;;
43345;SDS011;28937;51.160;4.146;2023-08-01T12:50:09;8.98;;;1.50;;
43345;SDS011;28937;51.160;4.146;2023-08-01T12:52:35;5.05;;;1.40;;
43345;SDS011;28937;51.160;4.146;2023-08-01T12:55:00;4.30;;;1.38;;
43345;SDS011;28937;51.160;4.146;2023-08-01T12:57:26;2.67;;;1.10;;
43345;SDS011;28937;51.160;4.146;2023-08-01T12:59:52;4.20;;;1.48;;
43345;SDS011;28937;51.160;4.146;2023-08-01T13:02:17;3.83;;;1.38;;
43345;SDS011;28937;51.160;4.146;2023-08-01T13:04:43;4.20;;;1.15;;
43345;SDS011;28937;51.160;4.146;2023-08-01T13:07:09;5.30;;;1.33;;
43345;SDS011;28937;51.160;4.146;2023-08-01T13:09:35;5.57;;;1.30;;
43345;SDS011;28937;51.160;4.146;2023-08-01T13:12:00;4.90;;;1.60;;
43345;SDS011;28937;51.160;4.146;2023-08-01T13:14:26;6.50;;;1.58;;
43345;SDS011;28937;51.160;4.146;2023-08-01T13:16:51;11.48;;;1.48;;
43345;SDS011;28937;51.160;4.146;2023-08-01T13:19:18;4.65;;;1.40;;
43345;SDS011;28937;51.160;4.146;2023-08-01T13:21:43;3.08;;;1.15;;
43345;SDS011;28937;51.160;4.146;2023-08-01T13:24:09;4.13;;;1.52;;
43345;SDS011;28937;51.160;4.146;2023-08-01T13:26:35;3.42;;;1.52;;
43345;SDS011;28937;51.160;4.146;2023-08-01T13:29:01;4.55;;;1.85;;
43345;SDS011;28937;51.160;4.146;2023-08-01T13:31:27;5.28;;;1.63;;
43345;SDS011;28937;51.160;4.146;2023-08-01T13:33:54;5.50;;;1.77;;
43345;SDS011;28937;51.160;4.146;2023-08-01T13:36:23;5.18;;;1.58;;
43345;SDS011;28937;51.160;4.146;2023-08-01T13:38:49;4.18;;;1.65;;
43345;SDS011;28937;51.160;4.146;2023-08-01T13:41:14;3.75;;;1.38;;
43345;SDS011;28937;51.160;4.146;2023-08-01T13:43:40;4.32;;;1.60;;
43345;SDS011;28937;51.160;4.146;2023-08-01T13:46:12;4.80;;;1.58;;
43345;SDS011;28937;51.160;4.146;2023-08-01T13:48:40;4.53;;;1.50;;
43345;SDS011;28937;51.160;4.146;2023-08-01T13:51:06;6.10;;;1.85;;
43345;SDS011;28937;51.160;4.146;2023-08-01T13:53:32;3.78;;;1.23;;
43345;SDS011;28937;51.160;4.146;2023-08-01T13:55:58;5.72;;;1.50;;
43345;SDS011;28937;51.160;4.146;2023-08-01T13:58:24;3.53;;;1.55;;
43345;SDS011;28937;51.160;4.146;2023-08-01T14:00:50;6.28;;;1.75;;
43345;SDS011;28937;51.160;4.146;2023-08-01T14:03:15;4.03;;;1.45;;
43345;SDS011;28937;51.160;4.146;2023-08-01T14:05:41;5.05;;;1.65;;
43345;SDS011;28937;51.160;4.146;2023-08-01T14:08:06;8.60;;;1.38;;
43345;SDS011;28937;51.160;4.146;2023-08-01T14:10:32;7.35;;;1.77;;
43345;SDS011;28937;51.160;4.146;2023-08-01T14:12:58;5.40;;;1.65;;
43345;SDS011;28937;51.160;4.146;2023-08-01T14:15:23;4.72;;;1.40;;
43345;SDS011;28937;51.160;4.146;2023-08-01T14:17:49;3.72;;;1.65;;
43345;SDS011;28937;51.160;4.146;2023-08-01T14:20:14;3.55;;;1.42;;
43345;SDS011;28937;51.160;4.146;2023-08-01T14:22:41;7.35;;;1.52;;
43345;SDS011;28937;51.160;4.146;2023-08-01T14:25:07;3.83;;;1.50;;
43345;SDS011;28937;51.160;4.146;2023-08-01T14:27:34;6.93;;;1.75;;
43345;SDS011;28937;51.160;4.146;2023-08-01T14:30:00;5.88;;;2.10;;
43345;SDS011;28937;51.160;4.146;2023-08-01T14:32:27;4.72;;;1.45;;
43345;SDS011;28937;51.160;4.146;2023-08-01T14:34:53;8.10;;;1.88;;
43345;SDS011;28937;51.160;4.146;2023-08-01T14:37:19;9.02;;;2.13;;
43345;SDS011;28937;51.160;4.146;2023-08-01T14:39:48;5.50;;;1.60;;
43345;SDS011;28937;51.160;4.146;2023-08-01T14:42:15;5.55;;;1.38;;
43345;SDS011;28937;51.160;4.146;2023-08-01T14:44:41;7.82;;;1.73;;
43345;SDS011;28937;51.160;4.146;2023-08-01T14:47:06;6.97;;;1.70;;